Current | Forecast
Updated: 10:00 PM JST on June 26, 2017
Observed at Hyakuri AB, Japan
Temperature 68°F
Humidity 88%
Dew Point 64°F
Wind Variable at 2 mph
Pressure 29.83 in (Rising)
Conditions Partly Cloudy
Visibility 6.2 miles
UV 0 out of 16
Clouds (FEW) : 1500 ft
Yesterday's Maximum 79°F
Yesterday's Minimum 68°F approx.
Yesterday's Cooling Degree Days 8 approx.
Sunrise4:22 AM JST
Sunset7:01 PM JST
Moon Rise6:32 AM JST
Moon Set8:51 PM JST
Moon PhaseMoon Phase
Waxing Crescent
Raw METARMETAR RJAH 261300Z VRB02KT 9999 FEW015 BKN/// 20/18 Q1010


Monday
. High: 75° F.
Tuesday
. High: 77° F.
Wednesday
. High: 66° F.
Thursday
. High: 71° F.
Friday
. High: 73° F.
Saturday
. High: 73° F.
Sunday
. High: 73° F.
Monday
. High: 69° F.

Units: English | Metric

Find the Weather for any City, State or Zipcode, or Country:

U.S. State List | Severe Weather | Tropical Storms | Ski Conditions
United States | Canada | Central America | South America | Asia | Europe | Australia | Africa | Islands

Weather Underground

© Copyright 2017
The Weather Company, LLC